Time;durP1;ratioP1;P1;durP2;ratioP2;P2;SDS_P1;SDS_P2;PMS_P1;PMS_P2;Temp;Humidity;BMP_temperature;BMP_pressure;BME280_temperature;BME280_humidity;BME280_pressure;Samples;Min_cycle;Max_cycle;Signal;HPM_P1;HPM_P2
2022/02/14 00:01:06;;;;;;;5.93;1.70;;;;;;;-1.23;45.81;100161.16;4992763;28;20111;-80
2022/02/14 00:03:32;;;;;;;4.05;2.13;;;;;;;-1.26;46.33;100156.81;5006645;28;20191;-78
2022/02/14 00:05:59;;;;;;;4.80;1.50;;;;;;;-1.18;46.13;100171.56;5024600;28;20045;-78
2022/02/14 00:08:25;;;;;;;4.25;1.50;;;;;;;-1.57;45.96;100100.94;4995216;28;20049;-79
2022/02/14 00:10:51;;;;;;;3.35;1.67;;;;;;;-1.29;46.03;100135.34;5007025;28;20096;-78
2022/02/14 00:13:18;;;;;;;3.50;1.75;;;;;;;-1.37;45.94;100129.91;5008225;28;20133;-79
2022/02/14 00:15:44;;;;;;;4.05;1.65;;;;;;;-1.29;45.68;100126.03;5024311;28;20136;-80
2022/02/14 00:18:10;;;;;;;6.28;1.95;;;;;;;-1.17;46.06;100158.00;4992062;28;20185;-79
2022/02/14 00:20:36;;;;;;;3.75;1.50;;;;;;;-1.23;46.00;100149.28;5007862;28;20783;-79
2022/02/14 00:23:02;;;;;;;3.40;1.77;;;;;;;-1.11;46.01;100160.84;5009659;28;20060;-78
2022/02/14 00:25:28;;;;;;;3.67;1.23;;;;;;;-1.25;46.40;100134.69;5023822;28;20092;-78
2022/02/14 00:27:53;;;;;;;4.35;1.60;;;;;;;-1.17;46.17;100153.78;4993542;28;20413;-79
2022/02/14 00:30:19;;;;;;;3.88;1.70;;;;;;;-1.23;46.43;100146.72;5023569;28;20183;-78
2022/02/14 00:32:46;;;;;;;3.53;1.55;;;;;;;-1.12;46.16;100166.75;5012204;28;20110;-78
2022/02/14 00:35:14;;;;;;;3.53;1.70;;;;;;;-1.15;46.33;100141.06;5016165;28;20061;-80
2022/02/14 00:37:41;;;;;;;4.45;1.75;;;;;;;-1.28;46.07;100117.56;5028721;28;20041;-76
2022/02/14 00:40:07;;;;;;;3.38;1.50;;;;;;;-1.06;46.51;100152.56;5023166;28;20045;-78
2022/02/14 00:42:33;;;;;;;3.50;1.70;;;;;;;-1.02;46.37;100152.69;5025327;28;20052;-79
2022/02/14 00:44:59;;;;;;;4.25;1.88;;;;;;;-1.06;46.57;100141.50;5024706;28;20057;-78
2022/02/14 00:47:25;;;;;;;7.70;1.88;;;;;;;-1.16;46.24;100124.00;5010195;28;20045;-77
2022/02/14 00:49:52;;;;;;;4.28;1.55;;;;;;;-1.22;46.25;100130.59;5013947;28;20373;-79
2022/02/14 00:52:18;;;;;;;3.65;1.63;;;;;;;-1.19;46.79;100142.63;5005752;28;20037;-77
2022/02/14 00:54:44;;;;;;;3.38;1.50;;;;;;;-1.29;46.27;100133.69;5009863;28;20045;-78
2022/02/14 00:57:10;;;;;;;3.22;1.52;;;;;;;-1.19;46.45;100151.94;5027345;28;20099;-80
2022/02/14 00:59:36;;;;;;;3.75;1.58;;;;;;;-1.35;46.60;100135.97;5028558;28;20046;-78
2022/02/14 01:02:03;;;;;;;4.65;2.08;;;;;;;-1.40;46.62;100114.44;5031697;28;20963;-78
2022/02/14 01:04:29;;;;;;;4.18;1.60;;;;;;;-1.34;46.51;100117.28;5029173;28;20045;-78
2022/02/14 01:06:54;;;;;;;2.63;1.42;;;;;;;-1.53;46.03;100097.69;5027552;28;20056;-81
2022/02/14 01:09:21;;;;;;;4.15;1.58;;;;;;;-1.46;47.11;100114.19;5012169;28;20049;-81
2022/02/14 01:11:47;;;;;;;4.63;1.83;;;;;;;-1.53;46.46;100103.69;5035898;28;20074;-79
2022/02/14 01:14:13;;;;;;;5.60;1.58;;;;;;;-1.44;46.65;100118.56;5021458;28;20131;-77
2022/02/14 01:16:39;;;;;;;4.65;1.52;;;;;;;-1.47;47.22;100122.66;5025714;28;20056;-79
2022/02/14 01:19:05;;;;;;;5.25;2.00;;;;;;;-1.65;47.00;100098.03;5040047;28;20392;-80
2022/02/14 01:21:31;;;;;;;2.55;1.42;;;;;;;-1.58;47.04;100106.84;5022643;28;20052;-77
2022/02/14 01:23:57;;;;;;;4.65;1.60;;;;;;;-1.49;47.19;100119.16;5010718;28;20377;-79
2022/02/14 01:26:22;;;;;;;3.30;1.50;;;;;;;-1.76;47.41;100074.56;5023622;28;20045;-78
2022/02/14 01:28:48;;;;;;;5.10;1.60;;;;;;;-1.69;47.55;100079.16;4994091;28;20042;-79
2022/02/14 01:31:14;;;;;;;3.80;2.13;;;;;;;-1.57;47.08;100099.25;5021683;28;20117;-79
2022/02/14 01:33:40;;;;;;;4.53;1.85;;;;;;;-1.66;47.27;100086.09;5026974;28;20123;-78
2022/02/14 01:36:05;;;;;;;5.63;1.70;;;;;;;-1.81;47.52;100063.31;5024884;28;20460;-79
2022/02/14 01:38:31;;;;;;;3.45;1.75;;;;;;;-1.74;47.22;100087.41;5004688;28;20463;-77
2022/02/14 01:40:57;;;;;;;5.13;1.60;;;;;;;-1.71;47.77;100088.41;5023704;28;20052;-79
2022/02/14 01:43:22;;;;;;;3.80;1.58;;;;;;;-1.56;47.44;100097.59;5006922;28;20127;-77
2022/02/14 01:45:48;;;;;;;4.50;1.70;;;;;;;-1.77;47.38;100055.00;4978496;28;20061;-78
2022/02/14 01:48:14;;;;;;;4.05;1.60;;;;;;;-1.55;47.33;100092.53;5006067;28;20408;-77
2022/02/14 01:50:40;;;;;;;3.50;1.70;;;;;;;-1.52;47.66;100085.03;4993069;28;20044;-77
2022/02/14 01:53:06;;;;;;;4.13;1.98;;;;;;;-1.58;47.95;100074.53;5025255;28;20045;-77
2022/02/14 01:55:33;;;;;;;2.92;1.52;;;;;;;-1.65;48.03;100062.28;5010137;28;20045;-77
2022/02/14 01:58:03;;;;;;;3.70;1.70;;;;;;;-1.52;47.65;100076.47;5022490;28;20508;-79
2022/02/14 02:00:30;;;;;;;2.97;1.55;;;;;;;-1.46;48.08;100086.97;5021718;28;20037;-77
2022/02/14 02:02:57;;;;;;;3.45;1.40;;;;;;;-1.46;47.77;100092.06;5005478;28;20055;-78
2022/02/14 02:05:24;;;;;;;4.15;1.58;;;;;;;-1.52;48.33;100068.81;5023352;28;20081;-77
2022/02/14 02:07:51;;;;;;;3.03;1.80;;;;;;;-1.44;47.80;100074.28;5012155;28;20057;-78
2022/02/14 02:10:19;;;;;;;4.25;1.70;;;;;;;-1.49;48.45;100073.22;5024120;28;20056;-76
2022/02/14 02:12:50;;;;;;;3.20;1.50;;;;;;;-1.52;48.40;100050.94;5025629;28;20045;-81
2022/02/14 02:15:17;;;;;;;5.18;2.20;;;;;;;-1.48;47.97;100055.41;5012474;28;20200;-80
2022/02/14 02:17:43;;;;;;;3.15;1.70;;;;;;;-1.57;48.31;100048.19;4994830;28;20045;-80
2022/02/14 02:20:13;;;;;;;3.05;1.38;;;;;;;-1.62;48.39;100047.13;5009945;28;20087;-79
2022/02/14 02:22:40;;;;;;;3.22;1.52;;;;;;;-1.79;48.57;100023.44;5014391;28;20037;-78
2022/02/14 02:25:06;;;;;;;5.80;1.70;;;;;;;-1.58;48.72;100061.78;5029127;28;20045;-76
2022/02/14 02:27:32;;;;;;;3.15;1.80;;;;;;;-1.62;48.58;100057.34;5005964;28;20401;-76
2022/02/14 02:29:59;;;;;;;3.75;1.77;;;;;;;-1.71;48.79;100050.16;5005763;28;20047;-78
2022/02/14 02:32:28;;;;;;;6.95;1.75;;;;;;;-1.65;49.24;100059.75;5022497;28;20132;-78
2022/02/14 02:34:55;;;;;;;4.45;1.90;;;;;;;-1.79;48.69;100025.97;5019551;28;20057;-77
2022/02/14 02:37:21;;;;;;;8.32;1.83;;;;;;;-1.72;48.74;100039.88;5020482;28;20068;-78
2022/02/14 02:39:47;;;;;;;2.92;1.75;;;;;;;-1.77;49.32;100029.47;5039818;28;20460;-78
2022/02/14 02:42:15;;;;;;;3.13;1.52;;;;;;;-1.65;49.03;100046.97;5022632;28;20048;-79
2022/02/14 02:44:42;;;;;;;2.47;1.42;;;;;;;-1.67;48.81;100048.63;5002755;28;20558;-78
2022/02/14 02:47:10;;;;;;;2.78;1.67;;;;;;;-1.84;49.38;100023.19;5018106;28;20444;-78
2022/02/14 02:49:36;;;;;;;3.67;1.52;;;;;;;-1.83;49.12;100017.28;5020959;28;20038;-78
2022/02/14 02:52:04;;;;;;;3.28;1.77;;;;;;;-1.81;49.14;100019.94;5021648;28;20555;-77
2022/02/14 02:54:30;;;;;;;4.45;1.60;;;;;;;-1.70;49.57;100049.34;5032657;28;20131;-76
2022/02/14 02:56:56;;;;;;;5.00;1.70;;;;;;;-1.78;49.61;100031.94;5009722;28;20033;-78
2022/02/14 02:59:23;;;;;;;3.15;1.48;;;;;;;-1.73;49.85;100040.69;5021265;28;20121;-78
2022/02/14 03:01:49;;;;;;;2.72;1.40;;;;;;;-1.67;49.57;100051.19;5021099;28;20045;-78
2022/02/14 03:04:16;;;;;;;5.63;2.05;;;;;;;-1.69;49.34;100040.88;5009150;28;20104;-79
2022/02/14 03:06:43;;;;;;;2.65;1.30;;;;;;;-1.84;49.81;100020.66;5021530;28;20057;-79
2022/02/14 03:09:09;;;;;;;3.17;1.55;;;;;;;-1.68;49.53;100051.97;5003682;28;20089;-78
2022/02/14 03:11:37;;;;;;;4.18;1.73;;;;;;;-1.64;49.62;100046.19;4992287;28;20136;-79
2022/02/14 03:14:03;;;;;;;3.03;1.42;;;;;;;-1.60;49.68;100044.66;5024108;28;20940;-78
2022/02/14 03:16:29;;;;;;;5.97;1.98;;;;;;;-1.60;49.81;100037.84;5023945;28;20038;-79
2022/02/14 03:18:55;;;;;;;3.45;1.65;;;;;;;-1.56;50.11;100036.34;5038843;28;20543;-78
2022/02/14 03:21:20;;;;;;;5.57;1.75;;;;;;;-1.62;49.88;100028.41;5024557;28;21529;-79
2022/02/14 03:23:51;;;;;;;2.92;1.50;;;;;;;-1.67;49.59;100018.00;5036604;28;20420;-78
2022/02/14 03:26:19;;;;;;;3.70;1.60;;;;;;;-1.68;49.72;100011.16;5024113;28;20672;-79
2022/02/14 03:28:50;;;;;;;2.42;1.60;;;;;;;-1.60;49.88;100021.69;5040256;28;20045;-78
2022/02/14 03:31:17;;;;;;;3.50;1.30;;;;;;;-1.76;50.06;100003.13;5020247;28;20045;-78
2022/02/14 03:33:44;;;;;;;2.75;1.58;;;;;;;-1.76;49.89;100003.13;5021964;28;20099;-80
2022/02/14 03:36:12;;;;;;;4.22;1.55;;;;;;;-1.73;50.26;100007.50;5015715;28;20073;-80
2022/02/14 03:38:39;;;;;;;3.25;1.60;;;;;;;-1.67;50.12;100012.88;5026162;28;20519;-79
2022/02/14 03:41:05;;;;;;;5.40;2.03;;;;;;;-1.72;50.06;100004.16;5024399;28;20051;-77
2022/02/14 03:43:31;;;;;;;3.90;1.80;;;;;;;-1.73;50.56;99997.31;5026656;28;20357;-79
2022/02/14 03:45:57;;;;;;;4.05;1.55;;;;;;;-1.69;50.45;100000.03;5027114;28;20045;-77
2022/02/14 03:48:25;;;;;;;3.75;1.50;;;;;;;-1.71;49.90;100006.75;5026540;28;20056;-77
2022/02/14 03:50:55;;;;;;;4.32;2.00;;;;;;;-1.72;50.14;100015.22;5029803;28;20044;-78
2022/02/14 03:53:23;;;;;;;4.00;1.67;;;;;;;-1.74;50.14;100016.81;5038014;28;20041;-79
2022/02/14 03:55:49;;;;;;;2.50;1.58;;;;;;;-1.78;50.72;100014.09;5017444;28;20037;-81
2022/02/14 03:58:15;;;;;;;4.60;1.85;;;;;;;-1.81;50.62;100012.28;5025608;28;20392;-75
2022/02/14 04:00:42;;;;;;;3.13;1.90;;;;;;;-1.85;50.33;100001.03;5027802;28;20047;-79
2022/02/14 04:03:08;;;;;;;3.45;1.77;;;;;;;-1.80;50.84;100002.94;5025798;28;20041;-78
2022/02/14 04:05:34;;;;;;;4.53;1.90;;;;;;;-1.75;50.72;100024.44;5039848;28;20508;-80
2022/02/14 04:08:00;;;;;;;4.78;1.70;;;;;;;-1.82;50.87;100000.31;5024894;28;21626;-81
2022/02/14 04:10:27;;;;;;;4.90;1.77;;;;;;;-1.75;50.77;100024.44;5025253;28;20048;-80
2022/02/14 04:12:54;;;;;;;3.53;1.52;;;;;;;-1.84;50.87;100014.69;5025265;28;20061;-81
2022/02/14 04:15:20;;;;;;;3.08;1.52;;;;;;;-1.87;50.76;100012.84;5028238;28;20041;-79
2022/02/14 04:17:46;;;;;;;2.60;1.70;;;;;;;-1.87;50.73;100017.09;4998728;28;20049;-77
2022/02/14 04:20:12;;;;;;;3.97;2.03;;;;;;;-1.88;51.06;100020.47;5024385;28;20349;-81
2022/02/14 04:22:40;;;;;;;4.10;1.90;;;;;;;-1.88;50.96;100020.47;5030468;28;20072;-78
2022/02/14 04:25:12;;;;;;;5.22;1.80;;;;;;;-1.89;51.09;100021.25;5012713;28;20056;-77
2022/02/14 04:27:38;;;;;;;3.55;1.60;;;;;;;-1.95;51.40;100006.56;5026629;28;20048;-81
2022/02/14 04:30:05;;;;;;;3.05;1.85;;;;;;;-1.90;51.50;100012.75;5009133;28;20049;-78
2022/02/14 04:32:32;;;;;;;4.75;2.05;;;;;;;-2.04;51.44;99994.25;5028764;28;20523;-80
2022/02/14 04:34:58;;;;;;;4.55;1.88;;;;;;;-2.02;51.73;99996.88;5008260;28;20053;-82
2022/02/14 04:37:24;;;;;;;7.03;2.08;;;;;;;-1.94;51.58;100009.97;5025598;28;21046;-77
2022/02/14 04:39:51;;;;;;;4.97;2.13;;;;;;;-2.07;51.30;99978.81;5026335;28;20042;-80
2022/02/14 04:42:17;;;;;;;5.13;2.20;;;;;;;-2.19;51.42;99979.13;5026971;28;20069;-80
2022/02/14 04:44:43;;;;;;;2.47;1.73;;;;;;;-2.10;51.58;99999.09;5040620;28;20069;-79
2022/02/14 04:47:09;;;;;;;3.40;1.90;;;;;;;-2.24;51.63;99979.75;5009422;28;20044;-80
2022/02/14 04:49:35;;;;;;;2.85;1.65;;;;;;;-2.25;51.79;99976.31;5025289;28;20473;-79
2022/02/14 04:52:02;;;;;;;3.35;1.80;;;;;;;-2.25;51.79;99980.53;5029984;28;20825;-78
2022/02/14 04:54:28;;;;;;;4.00;2.08;;;;;;;-2.27;51.86;99966.06;5028660;28;20073;-82
2022/02/14 04:56:55;;;;;;;4.43;1.80;;;;;;;-2.09;52.04;99977.88;5030626;28;20136;-77
2022/02/14 04:59:20;;;;;;;3.78;2.15;;;;;;;-2.15;52.04;99965.72;5043749;28;20044;-79
2022/02/14 05:01:47;;;;;;;5.10;2.25;;;;;;;-2.12;52.51;99968.44;5030750;28;20041;-79
2022/02/14 05:04:14;;;;;;;3.17;1.95;;;;;;;-2.15;52.48;99968.28;5026706;28;20073;-80
2022/02/14 05:06:40;;;;;;;3.45;1.77;;;;;;;-1.92;52.28;99993.94;5026810;28;20139;-81
2022/02/14 05:09:07;;;;;;;4.43;2.10;;;;;;;-1.99;51.91;99967.28;5037381;28;20049;-80
2022/02/14 05:11:33;;;;;;;5.80;1.92;;;;;;;-2.11;52.15;99938.69;5024768;28;20092;-79
2022/02/14 05:13:59;;;;;;;3.60;1.80;;;;;;;-2.06;52.49;99939.75;5007287;28;20045;-78
2022/02/14 05:16:24;;;;;;;3.83;1.80;;;;;;;-1.87;52.09;99976.28;5023294;28;20711;-78
2022/02/14 05:18:51;;;;;;;4.32;1.40;;;;;;;-1.78;52.50;99981.81;5028276;28;20045;-78
2022/02/14 05:21:17;;;;;;;3.88;1.90;;;;;;;-1.90;52.14;99971.94;5026902;28;20047;-80
2022/02/14 05:23:43;;;;;;;4.00;2.00;;;;;;;-2.10;52.39;99934.47;5025620;28;20128;-81
2022/02/14 05:26:09;;;;;;;3.45;1.88;;;;;;;-1.80;52.53;99985.06;5027476;28;20049;-79
2022/02/14 05:28:35;;;;;;;3.55;1.70;;;;;;;-1.77;52.70;99981.00;5013511;28;20061;-81
2022/02/14 05:31:01;;;;;;;2.72;1.58;;;;;;;-1.85;52.05;99970.44;5028451;28;20568;-79
2022/02/14 05:33:27;;;;;;;5.43;2.15;;;;;;;-1.95;52.47;99965.75;5022610;28;20038;-79
2022/02/14 05:35:53;;;;;;;3.67;1.83;;;;;;;-1.89;52.70;99968.56;5045710;28;20076;-78
2022/02/14 05:38:19;;;;;;;5.03;2.25;;;;;;;-1.74;52.68;99985.34;5034829;28;20045;-81
2022/02/14 05:40:44;;;;;;;2.90;1.70;;;;;;;-1.92;52.52;99958.22;5008021;28;20048;-82
2022/02/14 05:43:10;;;;;;;7.28;2.20;;;;;;;-1.66;52.49;99989.13;5027986;28;20160;-81
2022/02/14 05:45:36;;;;;;;2.67;1.80;;;;;;;-1.74;52.52;99968.34;5043490;28;20148;-79
2022/02/14 05:48:02;;;;;;;4.45;2.00;;;;;;;-1.61;52.93;99985.06;5018271;28;20037;-79
2022/02/14 05:50:28;;;;;;;3.00;1.95;;;;;;;-1.57;52.95;99984.41;5028856;28;20092;-80
2022/02/14 05:52:58;;;;;;;4.07;2.20;;;;;;;-1.36;52.70;99996.31;5027391;28;20056;-78
2022/02/14 05:55:30;;;;;;;3.65;1.98;;;;;;;-1.18;52.69;99997.91;5027273;28;20041;-80
2022/02/14 05:57:56;;;;;;;4.70;1.98;;;;;;;-1.72;52.57;99899.53;5027428;28;20041;-79
2022/02/14 06:00:22;;;;;;;4.80;2.13;;;;;;;-1.07;52.76;99986.47;5027459;28;20135;-80
2022/02/14 06:02:51;;;;;;;4.13;2.47;;;;;;;-1.00;52.23;100010.56;5027172;28;20057;-82
2022/02/14 06:05:17;;;;;;;4.95;2.08;;;;;;;-0.95;52.13;99994.63;5014173;28;20076;-78
2022/02/14 06:07:47;;;;;;;2.95;2.22;;;;;;;-1.11;52.11;99954.81;5027270;28;20042;-82
2022/02/14 06:10:13;;;;;;;6.57;3.13;;;;;;;-0.93;51.91;99980.22;5025752;28;20052;-80
2022/02/14 06:12:39;;;;;;;3.70;1.88;;;;;;;-1.04;52.47;99958.50;5027588;28;20515;-83
2022/02/14 06:15:05;;;;;;;5.45;2.50;;;;;;;-0.96;51.92;99967.31;5031945;28;20060;-78
2022/02/14 06:17:31;;;;;;;4.38;1.95;;;;;;;-0.85;52.75;99984.78;5026983;28;20049;-80
2022/02/14 06:19:57;;;;;;;4.85;2.50;;;;;;;-0.79;52.58;99979.94;5027281;28;20137;-81
2022/02/14 06:22:25;;;;;;;7.25;2.38;;;;;;;-0.76;52.34;99973.25;5029706;28;20628;-78
2022/02/14 06:24:51;;;;;;;4.05;2.20;;;;;;;-0.65;52.03;99981.34;5038111;28;20034;-79
2022/02/14 06:27:17;;;;;;;4.93;2.60;;;;;;;-1.27;52.07;99870.72;5021578;28;20080;-78
2022/02/14 06:29:48;;;;;;;3.90;1.88;;;;;;;-0.83;51.87;99926.94;5034479;28;20053;-80
2022/02/14 06:32:15;;;;;;;4.28;2.38;;;;;;;-0.34;52.21;99992.75;5043133;28;20053;-79
2022/02/14 06:34:41;;;;;;;5.35;2.03;;;;;;;-1.12;51.66;99853.47;5035012;28;20495;-78
2022/02/14 06:37:07;;;;;;;3.60;2.13;;;;;;;-0.30;52.52;99975.84;5030901;28;20053;-79
2022/02/14 06:39:33;;;;;;;4.97;2.38;;;;;;;-0.48;51.10;99935.97;4998911;28;20041;-79
2022/02/14 06:41:59;;;;;;;6.00;2.28;;;;;;;-0.36;51.70;99932.13;5012051;28;20081;-80
2022/02/14 06:44:28;;;;;;;5.95;2.30;;;;;;;0.20;50.94;99995.56;5013255;28;20057;-81
2022/02/14 06:46:54;;;;;;;3.08;1.98;;;;;;;0.35;51.50;99990.09;5025821;28;20085;-80
2022/02/14 06:49:20;;;;;;;4.50;1.98;;;;;;;0.60;51.58;99986.72;5019502;28;20086;-81
2022/02/14 06:51:46;;;;;;;4.25;2.40;;;;;;;0.56;51.06;99936.22;5025106;28;20053;-82
2022/02/14 06:54:12;;;;;;;4.30;2.60;;;;;;;0.89;51.03;99962.09;5023775;28;20061;-82
2022/02/14 06:56:38;;;;;;;6.93;2.40;;;;;;;1.09;50.55;99904.63;5009504;28;20049;-80
2022/02/14 06:59:04;;;;;;;8.10;2.03;;;;;;;2.37;50.65;99967.31;5005602;28;20042;-79
2022/02/14 07:01:36;;;;;;;4.93;2.50;;;;;;;2.52;49.22;99876.09;5008968;28;20060;-80
2022/02/14 07:04:02;;;;;;;6.28;4.05;;;;;;;3.76;48.44;99969.78;5008979;28;20061;-80
2022/02/14 07:06:28;;;;;;;4.60;2.10;;;;;;;3.59;47.20;99838.19;5020981;28;20508;-83
2022/02/14 07:08:59;;;;;;;5.70;2.40;;;;;;;4.06;46.54;99845.09;4991284;28;20060;-81
2022/02/14 07:11:25;;;;;;;3.55;2.20;;;;;;;5.26;45.50;99960.50;5008041;28;20428;-80
2022/02/14 07:13:52;;;;;;;3.67;2.47;;;;;;;5.10;45.54;99817.50;5013269;28;20497;-80
2022/02/14 07:16:18;;;;;;;5.47;2.60;;;;;;;6.78;44.29;99920.97;5009331;28;20176;-82
2022/02/14 07:18:44;;;;;;;4.40;2.42;;;;;;;7.26;43.02;99855.75;5006112;28;20073;-83
2022/02/14 07:21:10;;;;;;;9.40;2.53;;;;;;;6.98;41.57;99796.09;4997085;28;20044;-80
2022/02/14 07:23:36;;;;;;;5.32;2.70;;;;;;;8.54;41.29;99936.59;5009597;28;20037;-83
2022/02/14 07:26:02;;;;;;;4.15;2.28;;;;;;;8.98;40.24;99838.00;4995431;28;20034;-80
2022/02/14 07:28:28;;;;;;;4.75;2.72;;;;;;;8.80;38.53;99909.81;4996295;28;20512;-79
2022/02/14 07:30:54;;;;;;;6.63;2.70;;;;;;;8.35;38.84;99945.16;4990481;28;20041;-78
2022/02/14 07:33:20;;;;;;;4.55;2.65;;;;;;;8.50;39.62;99941.75;5024617;28;20048;-80
2022/02/14 07:35:47;;;;;;;6.38;3.00;;;;;;;8.87;38.72;99895.09;5017598;28;20056;-79
2022/02/14 07:38:12;;;;;;;7.30;2.80;;;;;;;8.82;37.54;99856.19;5032850;28;20038;-80
2022/02/14 07:40:55;;;;;;;4.65;2.60;;;;;;;9.22;37.98;99932.28;5085088;27;20412;-81
2022/02/14 07:43:21;;;;;;;4.90;2.70;;;;;;;9.23;36.74;99906.31;5086137;28;20131;-82
2022/02/14 07:45:47;;;;;;;4.93;2.80;;;;;;;10.07;36.62;99924.22;5082307;28;20075;-79
2022/02/14 07:48:12;;;;;;;3.70;2.55;;;;;;;10.80;35.80;99909.03;5081104;28;20072;-80
2022/02/14 07:50:38;;;;;;;3.97;2.88;;;;;;;10.81;34.80;99876.94;5081850;28;20542;-82
2022/02/14 07:53:04;;;;;;;4.97;2.70;;;;;;;11.20;34.13;99889.59;5082625;28;21092;-80
2022/02/14 07:55:30;;;;;;;4.72;2.70;;;;;;;11.45;34.48;99920.63;5084449;28;20099;-79
2022/02/14 07:57:56;;;;;;;4.78;2.60;;;;;;;11.26;33.76;99865.22;5093229;28;20032;-79
2022/02/14 08:00:22;;;;;;;3.20;2.65;;;;;;;11.68;33.93;99885.63;5098669;28;20070;-80
2022/02/14 08:02:48;;;;;;;7.47;4.70;;;;;;;11.97;32.96;99855.69;5094660;28;20064;-81
2022/02/14 08:05:18;;;;;;;5.47;2.90;;;;;;;12.35;32.25;99917.78;5096342;28;20043;-81
2022/02/14 08:07:47;;;;;;;5.13;2.58;;;;;;;12.42;32.63;99912.50;5100794;28;20044;-81
2022/02/14 08:10:15;;;;;;;4.40;2.80;;;;;;;12.61;32.95;99908.72;5084848;28;20048;-82
2022/02/14 08:12:44;;;;;;;5.63;3.10;;;;;;;13.28;31.74;99901.50;5086248;28;20048;-81
2022/02/14 08:15:09;;;;;;;5.18;3.10;;;;;;;13.86;31.69;99869.00;5067414;28;20044;-85
2022/02/14 08:17:36;;;;;;;5.10;2.90;;;;;;;14.64;30.91;99898.69;5097017;28;20043;-80
2022/02/14 08:20:03;;;;;;;4.50;3.30;;;;;;;15.31;29.52;99890.03;5084786;28;20551;-79
2022/02/14 08:22:32;;;;;;;4.05;2.90;;;;;;;15.21;28.46;99884.16;5086857;28;20056;-80
2022/02/14 08:24:58;;;;;;;5.03;3.08;;;;;;;14.78;29.46;99908.84;5081970;28;20044;-81
2022/02/14 08:27:24;;;;;;;4.18;3.17;;;;;;;15.05;29.20;99909.03;5070155;28;20135;-82
2022/02/14 08:29:53;;;;;;;5.25;3.20;;;;;;;15.11;28.95;99908.03;5067274;28;20028;-79
2022/02/14 08:32:20;;;;;;;5.05;3.13;;;;;;;14.90;27.48;99897.19;5080154;28;20074;-84
2022/02/14 08:34:47;;;;;;;4.45;3.03;;;;;;;14.63;27.83;99885.59;5069824;28;20131;-78
2022/02/14 08:37:14;;;;;;;4.68;3.40;;;;;;;14.06;27.87;99937.50;5088048;28;20059;-79
2022/02/14 08:39:42;;;;;;;4.75;3.40;;;;;;;13.93;28.71;99927.28;5072909;28;20071;-79
2022/02/14 08:42:14;;;;;;;4.72;3.58;;;;;;;13.98;28.81;99927.19;5072423;28;20044;-80
2022/02/14 08:44:42;;;;;;;5.38;3.53;;;;;;;14.13;28.64;99911.16;5069939;28;20040;-80
2022/02/14 08:47:08;;;;;;;7.22;3.50;;;;;;;13.86;28.20;99905.63;5077357;28;20075;-81
2022/02/14 08:49:37;;;;;;;5.07;3.80;;;;;;;13.92;28.05;99911.63;5061898;28;20089;-79
2022/02/14 08:52:03;;;;;;;5.88;3.15;;;;;;;14.06;29.13;99917.41;5040542;28;20468;-83
2022/02/14 08:54:36;;;;;;;7.68;4.00;;;;;;;13.65;28.30;99845.91;5065653;28;20127;-81
2022/02/14 08:57:15;;;;;;;6.85;4.03;;;;;;;12.82;27.95;99857.03;5068023;28;20048;-82
2022/02/14 08:59:46;;;;;;;5.65;4.00;;;;;;;12.88;29.09;99898.72;5063716;28;20036;-80
2022/02/14 09:02:11;;;;;;;5.43;3.67;;;;;;;13.73;29.21;99925.06;5047521;28;20044;-80
2022/02/14 09:04:40;;;;;;;6.20;3.60;;;;;;;14.53;28.69;99858.78;5052313;28;20051;-78
2022/02/14 09:07:06;;;;;;;6.75;3.60;;;;;;;15.47;27.87;99876.47;5068435;28;20679;-81
2022/02/14 09:09:35;;;;;;;6.18;3.95;;;;;;;15.96;27.55;99855.84;5051820;28;20036;-80
2022/02/14 09:12:04;;;;;;;;;;;;;;;16.04;26.62;99906.38;5046938;28;20040;-80
2022/02/14 09:14:32;;;;;;;6.75;3.80;;;;;;;15.35;26.88;99886.41;5063903;28;20391;-81
2022/02/14 09:16:58;;;;;;;6.18;4.10;;;;;;;14.75;26.92;99908.94;5068244;28;20044;-81
2022/02/14 09:19:25;;;;;;;8.70;4.07;;;;;;;14.19;27.48;99906.69;5065750;28;20055;-82
2022/02/14 09:21:51;;;;;;;7.30;3.90;;;;;;;13.20;27.73;99910.34;5036199;28;20071;-80
2022/02/14 09:24:18;;;;;;;8.35;4.13;;;;;;;12.15;29.05;99922.41;5055501;28;20044;-79
2022/02/14 09:26:53;;;;;;;6.50;4.07;;;;;;;11.44;28.75;99878.06;5049448;28;20079;-83
2022/02/14 09:29:23;;;;;;;5.00;3.80;;;;;;;11.42;30.34;99858.97;5066810;28;20081;-76
2022/02/14 09:31:51;;;;;;;5.78;4.18;;;;;;;12.57;30.53;99898.34;5057424;28;20245;-82
2022/02/14 09:34:19;;;;;;;6.10;4.25;;;;;;;12.57;28.72;99849.59;5069062;28;20040;-80
2022/02/14 09:37:32;;;;;;;6.97;3.97;;;;;;;13.01;28.85;99800.13;5073845;28;20063;-80
2022/02/14 09:43:36;;;;;;;7.35;4.28;;;;;;;15.44;27.58;99868.69;5072951;28;20040;-80
2022/02/14 09:46:04;;;;;;;7.38;4.60;;;;;;;15.64;27.12;99876.88;5057810;28;20036;-83
2022/02/14 09:48:32;;;;;;;6.18;4.30;;;;;;;15.39;26.80;99891.56;5078521;28;20066;-80
2022/02/14 09:50:59;;;;;;;7.80;5.18;;;;;;;15.58;27.01;99870.94;5079367;28;20040;-82
2022/02/14 09:53:28;;;;;;;7.32;4.82;;;;;;;15.53;26.24;99884.19;5049917;28;20457;-78
2022/02/14 09:55:54;;;;;;;8.02;4.60;;;;;;;15.79;27.06;99886.06;5079059;28;20100;-81
2022/02/14 09:58:20;;;;;;;5.78;4.32;;;;;;;15.87;25.88;99872.75;5063072;28;20044;-78
2022/02/14 10:00:46;;;;;;;8.18;4.78;;;;;;;15.63;26.18;99874.28;5067496;28;20051;-81
2022/02/14 10:03:19;;;;;;;7.00;4.32;;;;;;;15.68;26.50;99840.91;5067269;28;20043;-81
2022/02/14 10:06:00;;;;;;;8.30;4.80;;;;;;;15.70;25.98;99873.19;5068014;28;20041;-79
2022/02/14 10:08:27;;;;;;;6.28;4.50;;;;;;;15.47;26.09;99869.47;5035324;28;20447;-84
2022/02/14 10:11:15;;;;;;;7.43;4.70;;;;;;;15.37;25.94;99870.63;5064436;28;20087;-82
2022/02/14 10:13:48;;;;;;;8.48;5.65;;;;;;;14.89;26.31;99843.94;5064554;28;20139;-81
2022/02/14 10:16:15;;;;;;;9.35;5.38;;;;;;;14.69;26.59;99854.91;5065621;28;20044;-79
2022/02/14 10:18:42;;;;;;;9.80;5.25;;;;;;;14.75;26.86;99880.13;5033461;28;20051;-83
2022/02/14 10:21:17;;;;;;;5.93;4.63;;;;;;;14.13;26.32;99886.72;5064146;28;20119;-81
2022/02/14 10:23:59;;;;;;;8.77;4.90;;;;;;;13.44;27.47;99875.97;5064416;28;20048;-82
2022/02/14 10:26:29;;;;;;;9.93;5.13;;;;;;;12.16;28.00;99879.81;5066280;28;20041;-82
2022/02/14 10:28:55;;;;;;;6.43;4.70;;;;;;;11.07;28.74;99898.41;5055669;28;20120;-77
2022/02/14 10:31:25;;;;;;;6.07;4.70;;;;;;;9.68;30.09;99880.22;5056609;28;20040;-81
2022/02/14 10:33:57;;;;;;;8.73;4.68;;;;;;;9.16;30.88;99904.56;5049408;28;20045;-82
2022/02/14 10:36:37;;;;;;;6.50;4.53;;;;;;;8.40;32.16;99931.34;5065811;28;20040;-79
2022/02/14 10:39:20;;;;;;;6.80;4.88;;;;;;;7.74;32.65;99912.97;5053640;28;20093;-78
2022/02/14 10:41:49;;;;;;;11.10;5.70;;;;;;;7.15;33.81;99891.94;5053889;28;20041;-79
2022/02/14 10:47:10;;;;;;;9.15;5.43;;;;;;;6.69;34.96;99921.75;5058638;28;20043;-81
2022/02/14 10:49:37;;;;;;;8.38;5.32;;;;;;;6.53;35.30;99925.06;5090885;28;20096;-79
2022/02/14 10:52:07;;;;;;;7.95;4.90;;;;;;;5.87;35.34;99858.88;5058771;28;20040;-80
2022/02/14 10:54:38;;;;;;;8.40;4.70;;;;;;;5.61;35.79;99899.88;5066787;28;20044;-83
2022/02/14 10:57:04;;;;;;;13.10;6.82;;;;;;;5.40;36.84;99907.38;5051154;28;20104;-78
2022/02/14 10:59:31;;;;;;;8.90;5.28;;;;;;;4.88;38.27;99832.66;5051855;28;20052;-78
2022/02/14 11:01:57;;;;;;;9.45;5.40;;;;;;;5.19;37.57;99889.00;5068518;28;20055;-81
2022/02/14 11:04:26;;;;;;;8.65;5.15;;;;;;;5.08;38.27;99894.88;5050760;28;20368;-80
2022/02/14 11:06:55;;;;;;;11.05;5.97;;;;;;;3.99;38.39;99750.53;5065466;28;20074;-80
2022/02/14 11:09:28;;;;;;;10.20;5.20;;;;;;;4.97;38.83;99922.19;5051569;28;20040;-81
2022/02/14 11:11:56;;;;;;;9.02;5.38;;;;;;;4.66;39.17;99898.50;5037809;28;20457;-79
2022/02/14 11:14:23;;;;;;;9.68;5.32;;;;;;;4.69;39.18;99903.72;5068731;28;20175;-81
2022/02/14 11:16:51;;;;;;;9.10;5.05;;;;;;;4.24;40.25;99853.13;5052700;28;20041;-80
2022/02/14 11:19:24;;;;;;;9.98;5.40;;;;;;;4.62;40.36;99901.88;5068070;28;20048;-79
2022/02/14 11:21:52;;;;;;;9.05;5.30;;;;;;;3.70;40.64;99786.03;5039055;28;20051;-79
2022/02/14 11:24:27;;;;;;;11.02;6.35;;;;;;;4.06;40.37;99872.56;5061108;28;20123;-82
2022/02/14 11:27:01;;;;;;;13.25;6.25;;;;;;;3.70;41.46;99819.50;5070085;28;20102;-81
2022/02/14 11:29:51;;;;;;;9.25;5.38;;;;;;;4.04;41.18;99903.41;5067974;28;20044;-81
2022/02/14 11:32:23;;;;;;;10.07;5.90;;;;;;;3.38;41.99;99838.59;5037467;28;20597;-79
2022/02/14 11:35:19;;;;;;;12.13;5.82;;;;;;;3.65;42.34;99906.94;5052617;28;20120;-81
2022/02/14 11:37:54;;;;;;;9.43;5.53;;;;;;;3.14;43.12;99841.53;5068938;28;20119;-84
2022/02/14 11:40:52;;;;;;;11.13;5.53;;;;;;;3.49;43.09;99907.44;5065368;28;20056;-79